Time;durP1;ratioP1;P1;durP2;ratioP2;P2;SDS_P1;SDS_P2;PMS_P1;PMS_P2;Temp;Humidity;BMP_temperature;BMP_pressure;BME280_temperature;BME280_humidity;BME280_pressure;Samples;Min_cycle;Max_cycle;Signal;HPM_P1;HPM_P2
2022/01/01 00:00:05;;;;;;;14.45;13.45;;;26.20;48.40;;;;;;5036199;28;20053;-63
2022/01/01 00:02:39;;;;;;;13.85;12.75;;;26.20;48.50;;;;;;5043162;28;20044;-61
2022/01/01 00:05:09;;;;;;;14.20;13.18;;;26.10;48.50;;;;;;5041405;28;20041;-57
2022/01/01 00:07:38;;;;;;;13.18;12.35;;;26.10;48.70;;;;;;5043259;28;20060;-63
2022/01/01 00:10:06;;;;;;;12.57;11.88;;;26.00;48.70;;;;;;5040158;28;20122;-64
2022/01/01 00:12:33;;;;;;;12.77;11.95;;;26.00;48.80;;;;;;5043581;28;20056;-54
2022/01/01 00:15:00;;;;;;;13.20;12.23;;;25.90;48.80;;;;;;5043175;28;20424;-49
2022/01/01 00:17:29;;;;;;;12.00;11.07;;;25.90;48.90;;;;;;5041131;28;20045;-54
2022/01/01 00:19:56;;;;;;;11.85;10.90;;;25.80;49.00;;;;;;5041715;28;20052;-55
2022/01/01 00:22:23;;;;;;;12.15;11.40;;;25.80;49.10;;;;;;5043782;28;20136;-53
2022/01/01 00:24:50;;;;;;;12.63;11.45;;;25.70;49.10;;;;;;5042021;28;20429;-54
2022/01/01 00:27:17;;;;;;;11.45;10.55;;;25.70;49.20;;;;;;5041271;28;20064;-64
2022/01/01 00:29:45;;;;;;;12.13;11.32;;;25.70;49.30;;;;;;5040698;28;20041;-67
2022/01/01 00:32:12;;;;;;;13.23;10.23;;;25.70;49.30;;;;;;5022612;28;20051;-56
2022/01/01 00:34:41;;;;;;;10.82;10.10;;;25.60;49.30;;;;;;5041738;28;20045;-57
2022/01/01 00:37:08;;;;;;;11.75;10.95;;;25.60;49.50;;;;;;5041760;28;20041;-58
2022/01/01 00:39:35;;;;;;;10.10;9.40;;;25.40;49.60;;;;;;5044992;28;20037;-60
2022/01/01 00:42:02;;;;;;;11.02;10.10;;;25.20;49.80;;;;;;5038702;28;20720;-53
2022/01/01 00:44:30;;;;;;;11.40;10.30;;;25.10;50.20;;;;;;5035381;28;20104;-57
2022/01/01 00:46:57;;;;;;;10.13;9.43;;;24.90;50.60;;;;;;5038991;28;20041;-54
2022/01/01 00:49:25;;;;;;;10.00;9.23;;;24.70;51.00;;;;;;5040026;28;20102;-57
2022/01/01 00:51:53;;;;;;;10.73;9.68;;;24.50;51.30;;;;;;5044084;28;20033;-53
2022/01/01 00:54:20;;;;;;;10.98;10.02;;;24.40;51.70;;;;;;5038050;28;20041;-54
2022/01/01 00:56:48;;;;;;;10.38;9.57;;;24.30;52.00;;;;;;5041017;28;20041;-57
2022/01/01 00:59:16;;;;;;;11.63;10.68;;;24.20;52.30;;;;;;5038969;28;20763;-54
2022/01/01 01:01:43;;;;;;;10.68;9.77;;;24.00;52.50;;;;;;5038772;28;20537;-57
2022/01/01 01:04:10;;;;;;;10.88;9.90;;;23.90;52.90;;;;;;5034084;28;20045;-55
2022/01/01 01:06:37;;;;;;;10.80;9.90;;;23.80;53.10;;;;;;5047784;28;20051;-57
2022/01/01 01:09:05;;;;;;;10.93;9.82;;;23.70;53.40;;;;;;5042447;28;20048;-55
2022/01/01 01:11:41;;;;;;;11.73;10.52;;;23.60;53.60;;;;;;5043696;28;20047;-56
2022/01/01 01:14:10;;;;;;;10.00;9.20;;;23.60;53.90;;;;;;5041773;28;20056;-55
2022/01/01 01:16:38;;;;;;;10.23;9.48;;;23.40;53.90;;;;;;5030233;28;20041;-55
2022/01/01 01:19:05;;;;;;;10.85;9.98;;;23.40;54.20;;;;;;5030341;28;20077;-56
2022/01/01 01:21:32;;;;;;;9.70;8.90;;;23.30;54.40;;;;;;5037394;28;20053;-58
2022/01/01 01:24:00;;;;;;;9.85;8.93;;;23.20;54.50;;;;;;5038006;28;20526;-55
2022/01/01 01:26:29;;;;;;;9.02;8.32;;;23.20;54.70;;;;;;5037464;28;20037;-54
2022/01/01 01:28:57;;;;;;;8.85;8.10;;;23.10;55.00;;;;;;5033874;28;20045;-56
2022/01/01 01:31:25;;;;;;;9.63;8.73;;;23.00;55.00;;;;;;5034089;28;20513;-57
2022/01/01 01:33:52;;;;;;;8.57;7.78;;;22.90;55.20;;;;;;5046647;28;20041;-54
2022/01/01 01:36:19;;;;;;;8.77;7.47;;;22.90;55.30;;;;;;5034809;28;20041;-55
2022/01/01 01:38:46;;;;;;;7.53;6.93;;;22.80;55.40;;;;;;5038038;28;20063;-56
2022/01/01 01:41:13;;;;;;;8.40;7.82;;;22.80;55.60;;;;;;5034040;28;20036;-56
2022/01/01 01:43:41;;;;;;;7.05;6.40;;;22.70;55.70;;;;;;5031089;28;20045;-54
2022/01/01 01:46:12;;;;;;;9.13;6.97;;;22.60;55.80;;;;;;5030521;28;20055;-54
2022/01/01 01:48:40;;;;;;;7.75;7.15;;;22.70;55.90;;;;;;5036669;28;20045;-56
2022/01/01 01:51:07;;;;;;;7.28;6.70;;;22.60;56.00;;;;;;5034223;28;20045;-54
2022/01/01 01:53:34;;;;;;;8.30;7.57;;;22.50;56.10;;;;;;5034561;28;20139;-55
2022/01/01 01:56:01;;;;;;;8.18;6.43;;;22.50;56.20;;;;;;5033317;28;20037;-55
2022/01/01 01:58:30;;;;;;;7.20;6.60;;;22.40;56.20;;;;;;5038830;28;20041;-56
2022/01/01 02:01:20;;;;;;;7.07;6.45;;;22.40;56.40;;;;;;5029080;28;20107;-54
2022/01/01 02:03:48;;;;;;;6.35;5.80;;;22.30;56.50;;;;;;5034231;28;20056;-54
2022/01/01 02:06:17;;;;;;;7.03;6.43;;;22.20;56.60;;;;;;5039380;28;20056;-55
2022/01/01 02:08:44;;;;;;;6.53;6.00;;;22.20;56.60;;;;;;5035153;28;20506;-56
2022/01/01 02:11:12;;;;;;;6.95;6.45;;;22.20;56.70;;;;;;5035027;28;20398;-53
2022/01/01 02:13:59;;;;;;;6.68;6.10;;;22.10;56.80;;;;;;5032766;28;20167;-54
2022/01/01 02:16:38;;;;;;;6.43;5.82;;;22.10;56.80;;;;;;5038451;28;20036;-53
2022/01/01 02:19:05;;;;;;;6.18;5.70;;;22.10;57.00;;;;;;5033280;28;20037;-54
2022/01/01 02:21:33;;;;;;;5.47;5.18;;;22.00;57.00;;;;;;5035421;28;20073;-55
2022/01/01 02:24:01;;;;;;;5.75;5.25;;;22.00;57.10;;;;;;5033599;28;20042;-53
2022/01/01 02:26:35;;;;;;;5.97;5.50;;;21.90;57.10;;;;;;5035719;28;20115;-55
2022/01/01 02:29:03;;;;;;;6.25;5.45;;;21.90;57.30;;;;;;5031932;28;20041;-54
2022/01/01 02:31:33;;;;;;;5.95;5.53;;;21.80;57.20;;;;;;5029941;28;20037;-54
2022/01/01 02:34:05;;;;;;;5.45;5.05;;;21.80;57.30;;;;;;5030461;28;20045;-56
2022/01/01 02:36:35;;;;;;;6.03;5.53;;;21.80;58.00;;;;;;5035510;28;20117;-56
2022/01/01 02:39:11;;;;;;;4.95;4.45;;;21.70;57.40;;;;;;5035905;28;20044;-56
2022/01/01 02:41:38;;;;;;;5.05;4.60;;;21.70;57.50;;;;;;5032129;28;20061;-54
2022/01/01 02:44:06;;;;;;;6.10;4.00;;;21.70;57.50;;;;;;5033320;28;20524;-56
2022/01/01 02:46:34;;;;;;;5.38;4.55;;;21.70;57.70;;;;;;5034462;28;20040;-53
2022/01/01 02:49:02;;;;;;;5.43;4.93;;;21.60;57.70;;;;;;5033796;28;20045;-51
2022/01/01 02:51:29;;;;;;;4.82;4.50;;;21.60;57.80;;;;;;5034568;28;20072;-56
2022/01/01 02:53:57;;;;;;;4.43;4.13;;;21.60;57.80;;;;;;5032849;28;20045;-55
2022/01/01 02:56:24;;;;;;;4.80;4.35;;;21.60;57.90;;;;;;5034840;28;20041;-54
2022/01/01 02:58:52;;;;;;;5.22;4.57;;;21.50;57.90;;;;;;5043260;28;20043;-56
2022/01/01 03:01:19;;;;;;;4.07;3.88;;;21.50;57.90;;;;;;5029823;28;20079;-55
2022/01/01 03:03:46;;;;;;;4.25;3.95;;;21.50;58.00;;;;;;5033994;28;20077;-56
2022/01/01 03:06:19;;;;;;;4.18;3.85;;;21.50;58.10;;;;;;5037875;28;20132;-53
2022/01/01 03:08:47;;;;;;;4.07;3.60;;;21.50;58.20;;;;;;5033365;28;20108;-56
2022/01/01 03:11:16;;;;;;;4.60;4.20;;;21.40;58.10;;;;;;5040869;28;20400;-52
2022/01/01 03:13:44;;;;;;;4.07;3.67;;;21.40;58.20;;;;;;5042685;28;20067;-54
2022/01/01 03:16:11;;;;;;;3.97;3.67;;;21.40;58.20;;;;;;5034947;28;20080;-52
2022/01/01 03:18:38;;;;;;;3.47;3.25;;;21.40;58.30;;;;;;5033824;28;20050;-54
2022/01/01 03:21:06;;;;;;;3.65;3.53;;;21.40;58.40;;;;;;5034314;28;20058;-52
2022/01/01 03:23:33;;;;;;;3.88;3.45;;;21.30;58.30;;;;;;5036603;28;20136;-56
2022/01/01 03:26:00;;;;;;;3.53;3.22;;;21.30;58.40;;;;;;5033860;28;20040;-57
2022/01/01 03:28:29;;;;;;;3.65;3.38;;;21.30;58.40;;;;;;5028739;28;20037;-55
2022/01/01 03:30:56;;;;;;;3.30;3.10;;;21.30;58.40;;;;;;5031030;28;20037;-56
2022/01/01 03:33:23;;;;;;;3.42;3.30;;;21.30;58.40;;;;;;5039053;28;20055;-55
2022/01/01 03:35:51;;;;;;;5.88;3.75;;;21.30;58.40;;;;;;5035297;28;20044;-55
2022/01/01 03:38:18;;;;;;;4.68;3.65;;;21.30;58.50;;;;;;5033073;28;20465;-55
2022/01/01 03:40:45;;;;;;;3.33;3.13;;;21.30;58.50;;;;;;5032381;28;20064;-53
2022/01/01 03:43:12;;;;;;;2.50;2.40;;;21.20;58.40;;;;;;5029111;28;20621;-56
2022/01/01 03:45:41;;;;;;;3.40;3.10;;;21.20;58.40;;;;;;5031024;28;20053;-57
2022/01/01 03:48:08;;;;;;;2.85;2.65;;;21.20;58.40;;;;;;5035643;28;20225;-55
2022/01/01 03:50:35;;;;;;;3.85;3.03;;;21.20;58.50;;;;;;5031530;28;20656;-57
2022/01/01 03:53:02;;;;;;;2.95;2.75;;;21.20;58.50;;;;;;5029123;28;20069;-56
2022/01/01 03:55:29;;;;;;;5.75;3.53;;;21.10;58.50;;;;;;5028564;28;20041;-56
2022/01/01 03:57:56;;;;;;;2.63;2.53;;;21.10;58.50;;;;;;5031759;28;20049;-55
2022/01/01 04:00:23;;;;;;;3.33;2.97;;;21.10;58.50;;;;;;5031910;28;20489;-55
2022/01/01 04:02:52;;;;;;;3.15;2.88;;;21.10;58.50;;;;;;5033838;28;20432;-55
2022/01/01 04:05:19;;;;;;;2.83;2.58;;;21.10;58.60;;;;;;5033706;28;20050;-54
2022/01/01 04:07:46;;;;;;;4.78;2.45;;;21.10;58.60;;;;;;5038860;28;20064;-53
2022/01/01 04:10:13;;;;;;;2.42;2.22;;;21.10;58.60;;;;;;5032842;28;20037;-57
2022/01/01 04:12:40;;;;;;;3.03;2.45;;;21.10;58.70;;;;;;5033598;28;20046;-57
2022/01/01 04:15:08;;;;;;;3.42;2.40;;;21.10;58.70;;;;;;5042374;28;20029;-57
2022/01/01 04:17:37;;;;;;;3.03;2.42;;;21.10;58.80;;;;;;5041158;28;20043;-54
2022/01/01 04:20:08;;;;;;;4.88;1.88;;;21.10;58.90;;;;;;5042893;28;20045;-53
2022/01/01 04:22:35;;;;;;;2.92;2.65;;;21.00;58.80;;;;;;5035875;28;20072;-55
2022/01/01 04:25:02;;;;;;;2.95;2.75;;;21.00;58.80;;;;;;5046536;28;20044;-54
2022/01/01 04:27:29;;;;;;;3.55;2.28;;;21.00;58.80;;;;;;5047491;28;20131;-53
2022/01/01 04:29:56;;;;;;;3.30;1.73;;;21.00;58.90;;;;;;5040313;28;20037;-53
2022/01/01 04:32:23;;;;;;;2.55;2.35;;;21.00;58.90;;;;;;5046004;28;20041;-56
2022/01/01 04:34:50;;;;;;;2.28;1.98;;;21.00;58.90;;;;;;5036910;28;20038;-56
2022/01/01 04:37:20;;;;;;;2.28;2.10;;;21.00;58.90;;;;;;5040125;28;20042;-57
2022/01/01 04:39:49;;;;;;;3.55;2.30;;;21.00;58.90;;;;;;5036767;28;20049;-56
2022/01/01 04:42:17;;;;;;;3.15;2.08;;;20.90;58.90;;;;;;5044528;28;20047;-54
2022/01/01 04:44:44;;;;;;;2.83;2.20;;;20.90;59.00;;;;;;5045514;28;20683;-53
2022/01/01 04:47:11;;;;;;;2.65;2.45;;;20.90;59.00;;;;;;5044566;28;20033;-57
2022/01/01 04:49:38;;;;;;;4.90;2.15;;;20.90;59.00;;;;;;5043415;28;20512;-56
2022/01/01 04:52:05;;;;;;;2.28;2.17;;;20.90;59.00;;;;;;5038174;28;20507;-53
2022/01/01 04:54:34;;;;;;;2.00;1.90;;;20.90;59.00;;;;;;5041244;28;20135;-52
2022/01/01 04:57:01;;;;;;;3.20;2.33;;;20.90;59.00;;;;;;5041418;28;20052;-56
2022/01/01 04:59:28;;;;;;;1.77;1.67;;;20.90;59.00;;;;;;5042743;28;20041;-55
2022/01/01 05:01:55;;;;;;;3.22;3.00;;;20.90;59.10;;;;;;5045522;28;20037;-56
2022/01/01 05:04:22;;;;;;;2.53;2.13;;;20.90;59.10;;;;;;5037994;28;20089;-54
2022/01/01 05:06:49;;;;;;;2.38;2.20;;;20.80;59.00;;;;;;5043132;28;20033;-55
2022/01/01 05:09:16;;;;;;;2.08;1.98;;;20.80;59.00;;;;;;5033330;28;20526;-54
2022/01/01 05:11:44;;;;;;;2.15;2.05;;;20.80;59.00;;;;;;5037544;28;20046;-57
2022/01/01 05:14:12;;;;;;;1.65;1.55;;;20.80;59.00;;;;;;5037228;28;20037;-55
2022/01/01 05:16:39;;;;;;;1.60;1.50;;;20.80;59.00;;;;;;5040227;28;20124;-55
2022/01/01 05:19:06;;;;;;;2.05;1.95;;;20.80;59.00;;;;;;5039465;28;20136;-52
2022/01/01 05:21:35;;;;;;;2.45;2.13;;;20.80;59.00;;;;;;5033966;28;20034;-55
2022/01/01 05:24:05;;;;;;;2.00;1.90;;;20.80;59.00;;;;;;5038313;28;20060;-53
2022/01/01 05:26:33;;;;;;;2.30;1.75;;;20.80;59.10;;;;;;5045454;28;20033;-51
2022/01/01 05:29:01;;;;;;;3.03;2.28;;;20.80;59.10;;;;;;5045290;28;20049;-56
2022/01/01 05:31:33;;;;;;;1.88;1.77;;;20.80;59.10;;;;;;5038875;28;20045;-54
2022/01/01 05:34:00;;;;;;;2.10;1.70;;;20.70;59.00;;;;;;5033858;28;20053;-56
2022/01/01 05:36:27;;;;;;;1.77;1.67;;;20.70;59.00;;;;;;5033885;28;20046;-49
2022/01/01 05:38:54;;;;;;;2.45;2.05;;;20.70;59.00;;;;;;5033349;28;20048;-51
2022/01/01 05:41:21;;;;;;;1.85;1.75;;;20.70;59.00;;;;;;5035599;28;20037;-51
2022/01/01 05:43:48;;;;;;;0.82;0.82;;;20.70;58.90;;;;;;5035073;28;20045;-55
2022/01/01 05:46:17;;;;;;;1.38;1.25;;;20.70;58.90;;;;;;5030216;28;20041;-54
2022/01/01 05:48:44;;;;;;;1.60;1.50;;;20.70;58.90;;;;;;5033296;28;20521;-53
2022/01/01 05:51:11;;;;;;;2.83;1.63;;;20.70;58.90;;;;;;5037993;28;20042;-54
2022/01/01 05:53:38;;;;;;;1.17;1.15;;;20.70;58.90;;;;;;5034114;28;20052;-55
2022/01/01 05:56:06;;;;;;;3.60;1.70;;;20.70;59.00;;;;;;5031190;28;20065;-51
2022/01/01 05:58:33;;;;;;;1.70;1.55;;;20.60;59.00;;;;;;5032746;28;20060;-57
2022/01/01 06:01:00;;;;;;;1.77;1.52;;;20.60;59.00;;;;;;5038386;28;20567;-55
2022/01/01 06:03:28;;;;;;;1.00;1.00;;;20.60;59.00;;;;;;5040233;28;20049;-56
2022/01/01 06:05:55;;;;;;;2.00;1.40;;;20.60;59.00;;;;;;5036173;28;20045;-56
2022/01/01 06:08:24;;;;;;;1.15;1.05;;;20.60;59.00;;;;;;5038172;28;20407;-55
2022/01/01 06:10:51;;;;;;;1.85;1.33;;;20.60;59.00;;;;;;5037989;28;20142;-55
2022/01/01 06:13:18;;;;;;;3.50;2.50;;;20.60;59.00;;;;;;5041774;28;20045;-53
2022/01/01 06:15:45;;;;;;;1.05;1.02;;;20.60;59.00;;;;;;5039130;28;20063;-53
2022/01/01 06:18:12;;;;;;;1.60;1.50;;;20.60;59.00;;;;;;5045717;28;20568;-51
2022/01/01 06:20:42;;;;;;;0.70;0.70;;;20.60;59.00;;;;;;5039901;28;20052;-56
2022/01/01 06:23:09;;;;;;;1.38;1.27;;;20.60;59.00;;;;;;5035883;28;20144;-52
2022/01/01 06:25:36;;;;;;;1.10;1.10;;;20.60;59.00;;;;;;5038647;28;20098;-57
2022/01/01 06:28:04;;;;;;;1.20;1.10;;;20.60;59.00;;;;;;5039670;28;20039;-53
2022/01/01 06:30:33;;;;;;;1.48;1.40;;;20.60;59.10;;;;;;5043532;28;20033;-55
2022/01/01 06:33:01;;;;;;;1.50;1.15;;;20.50;59.00;;;;;;5039470;28;20045;-54
2022/01/01 06:35:28;;;;;;;1.88;1.77;;;20.50;59.00;;;;;;5040623;28;20544;-52
2022/01/01 06:37:57;;;;;;;0.60;0.60;;;20.50;59.00;;;;;;5040926;28;20041;-54
2022/01/01 06:40:24;;;;;;;1.52;1.42;;;20.50;59.00;;;;;;5030637;28;20041;-57
2022/01/01 06:42:51;;;;;;;0.90;0.90;;;20.50;59.00;;;;;;5033280;28;20045;-57
2022/01/01 06:45:18;;;;;;;1.50;1.40;;;20.50;59.60;;;;;;5039226;28;20053;-53
2022/01/01 06:47:45;;;;;;;0.98;0.90;;;20.50;59.00;;;;;;5034973;28;20501;-52
2022/01/01 06:50:12;;;;;;;1.65;1.20;;;20.50;59.00;;;;;;5031734;28;20063;-54
2022/01/01 06:52:44;;;;;;;0.52;0.52;;;20.50;59.00;;;;;;5043366;28;20045;-54
2022/01/01 06:55:14;;;;;;;1.27;0.93;;;20.50;59.10;;;;;;5035550;28;20041;-54
2022/01/01 06:57:42;;;;;;;0.70;0.70;;;20.50;59.10;;;;;;5033548;28;20049;-54
2022/01/01 07:00:10;;;;;;;1.15;1.05;;;20.50;59.10;;;;;;5035177;28;20045;-54
2022/01/01 07:02:40;;;;;;;0.82;0.82;;;20.40;59.00;;;;;;5037288;28;20063;-54
2022/01/01 07:05:08;;;;;;;1.70;1.05;;;20.50;59.10;;;;;;5030207;28;20033;-56
2022/01/01 07:07:36;;;;;;;1.02;0.85;;;20.40;59.00;;;;;;5030923;28;20041;-53
2022/01/01 07:10:04;;;;;;;1.50;1.40;;;20.40;59.00;;;;;;5032634;28;20045;-52
2022/01/01 07:12:34;;;;;;;0.40;0.40;;;20.40;59.00;;;;;;5032669;28;20098;-54
2022/01/01 07:15:01;;;;;;;1.00;0.90;;;20.40;59.00;;;;;;5031491;28;20530;-54
2022/01/01 07:17:28;;;;;;;1.38;0.68;;;20.40;59.00;;;;;;5035077;28;20313;-55
2022/01/01 07:19:55;;;;;;;2.30;1.27;;;20.40;59.00;;;;;;5041835;28;20132;-51
2022/01/01 07:22:22;;;;;;;0.98;0.52;;;20.40;59.00;;;;;;5029577;28;20053;-53
2022/01/01 07:24:49;;;;;;;0.70;0.60;;;20.40;59.00;;;;;;5034790;28;20053;-54
2022/01/01 07:27:17;;;;;;;1.15;0.88;;;20.40;59.00;;;;;;5034268;28;20092;-54
2022/01/01 07:29:45;;;;;;;1.85;1.02;;;20.40;59.00;;;;;;5036274;28;20041;-55
2022/01/01 07:32:12;;;;;;;0.65;0.57;;;20.40;59.00;;;;;;5032476;28;20040;-54
2022/01/01 07:34:39;;;;;;;0.88;0.88;;;20.30;59.00;;;;;;5028807;28;20041;-54
2022/01/01 07:37:06;;;;;;;1.33;1.23;;;20.30;59.00;;;;;;5032441;28;20514;-53
2022/01/01 07:39:33;;;;;;;0.65;0.65;;;20.40;59.00;;;;;;5032219;28;20144;-57
2022/01/01 07:42:00;;;;;;;1.17;0.68;;;20.30;58.90;;;;;;5034821;28;20362;-54
2022/01/01 07:44:27;;;;;;;0.73;0.73;;;20.30;58.90;;;;;;5038883;28;20056;-53
2022/01/01 07:46:55;;;;;;;0.85;0.68;;;20.40;58.90;;;;;;5036057;28;20037;-53
2022/01/01 07:49:22;;;;;;;1.17;0.95;;;20.30;58.80;;;;;;5047359;28;20049;-53
2022/01/01 07:51:50;;;;;;;1.20;0.95;;;20.30;58.80;;;;;;5038723;28;20041;-55
2022/01/01 07:54:17;;;;;;;0.70;0.70;;;20.30;58.80;;;;;;5041139;28;20543;-55
2022/01/01 07:56:43;;;;;;;0.70;0.70;;;20.30;58.80;;;;;;5036492;28;20046;-56
2022/01/01 07:59:10;;;;;;;1.15;0.88;;;20.30;58.70;;;;;;5035902;28;20095;-55
2022/01/01 08:01:38;;;;;;;0.50;0.50;;;20.30;58.80;;;;;;5040854;28;20728;-54
2022/01/01 08:04:07;;;;;;;1.10;0.80;;;20.30;58.90;;;;;;5045122;28;20041;-57
2022/01/01 08:06:34;;;;;;;1.80;0.63;;;20.30;58.90;;;;;;5042994;28;20039;-55
2022/01/01 08:09:01;;;;;;;0.65;0.40;;;20.30;58.90;;;;;;5043007;28;20037;-53
2022/01/01 08:11:28;;;;;;;1.25;0.60;;;20.30;59.00;;;;;;5045828;28;20623;-56
2022/01/01 08:13:55;;;;;;;0.75;0.45;;;20.30;58.90;;;;;;5039682;28;20402;-56
2022/01/01 08:16:22;;;;;;;1.42;0.65;;;20.30;58.90;;;;;;5044518;28;20041;-55
2022/01/01 08:18:49;;;;;;;0.73;0.52;;;20.30;59.00;;;;;;5036314;28;20049;-55
2022/01/01 08:21:18;;;;;;;1.05;0.80;;;20.30;59.10;;;;;;5041718;28;20045;-54
2022/01/01 08:23:45;;;;;;;0.63;0.57;;;20.30;59.10;;;;;;5038170;28;20063;-56
2022/01/01 08:26:12;;;;;;;1.73;1.00;;;20.30;59.20;;;;;;5037554;28;20051;-57
2022/01/01 08:28:39;;;;;;;1.60;0.68;;;20.30;59.20;;;;;;5038569;28;20053;-56
2022/01/01 08:31:06;;;;;;;0.50;0.40;;;20.30;59.20;;;;;;5041729;28;20037;-55
2022/01/01 08:33:33;;;;;;;2.38;0.50;;;20.30;59.20;;;;;;5043234;28;20176;-52
2022/01/01 08:36:03;;;;;;;0.80;0.65;;;20.30;59.20;;;;;;5040441;28;20041;-52
2022/01/01 08:38:32;;;;;;;2.72;0.82;;;20.30;59.30;;;;;;5039171;28;20115;-56
2022/01/01 08:41:00;;;;;;;9.90;2.28;;;20.30;59.30;;;;;;5038036;28;20041;-54
2022/01/01 08:43:27;;;;;;;3.22;1.20;;;20.30;59.00;;;;;;5032809;28;20632;-53
2022/01/01 08:45:54;;;;;;;3.50;0.63;;;20.30;59.30;;;;;;5038614;28;20045;-57
2022/01/01 08:48:21;;;;;;;2.28;0.75;;;20.30;59.40;;;;;;5038389;28;20033;-56
2022/01/01 08:50:49;;;;;;;2.15;0.40;;;20.50;59.30;;;;;;5039615;28;20799;-56
2022/01/01 08:53:16;;;;;;;6.18;0.88;;;20.60;59.10;;;;;;5035898;28;20108;-55
2022/01/01 08:55:45;;;;;;;2.88;0.65;;;20.80;58.70;;;;;;5038247;28;20879;-55
2022/01/01 08:58:12;;;;;;;0.68;0.60;;;21.00;58.30;;;;;;5038578;28;20642;-57
2022/01/01 09:00:39;;;;;;;3.10;0.38;;;21.20;57.70;;;;;;5037835;28;20595;-58
2022/01/01 09:03:06;;;;;;;4.22;0.77;;;21.40;57.10;;;;;;5036151;28;20037;-57
2022/01/01 09:05:33;;;;;;;3.25;0.60;;;21.60;56.40;;;;;;5038797;28;20510;-59
2022/01/01 09:08:00;;;;;;;1.42;0.70;;;21.80;55.80;;;;;;5041302;28;20051;-60
2022/01/01 09:10:27;;;;;;;3.20;0.85;;;22.10;55.30;;;;;;5042059;28;20110;-67
2022/01/01 09:12:56;;;;;;;1.58;0.52;;;22.30;54.60;;;;;;5043631;28;20818;-64
2022/01/01 09:15:23;;;;;;;1.48;0.55;;;22.50;53.90;;;;;;5039750;28;20498;-63
2022/01/01 09:17:50;;;;;;;6.80;1.88;;;22.70;53.30;;;;;;5041348;28;20417;-63
2022/01/01 09:20:18;;;;;;;0.68;0.60;;;22.90;52.70;;;;;;5040944;28;20037;-62
2022/01/01 09:22:45;;;;;;;0.43;0.40;;;23.00;52.00;;;;;;5037803;28;20526;-63
2022/01/01 09:25:12;;;;;;;2.65;0.93;;;23.20;51.60;;;;;;5041530;28;20111;-52
2022/01/01 09:27:39;;;;;;;2.30;0.90;;;23.30;51.20;;;;;;5041414;28;20052;-59
2022/01/01 09:30:09;;;;;;;1.70;0.80;;;23.50;50.80;;;;;;5040404;28;20041;-61
2022/01/01 09:32:37;;;;;;;2.72;0.85;;;23.50;51.10;;;;;;5041783;28;20056;-61
2022/01/01 09:35:06;;;;;;;4.65;0.43;;;23.50;51.00;;;;;;5045248;28;20489;-62
2022/01/01 09:37:33;;;;;;;3.97;0.55;;;23.50;51.20;;;;;;5037263;28;20048;-62
2022/01/01 09:40:02;;;;;;;4.68;1.10;;;23.40;51.30;;;;;;5045842;28;20048;-62
2022/01/01 09:42:30;;;;;;;2.95;1.20;;;23.30;51.50;;;;;;5034429;28;20052;-62
2022/01/01 09:44:59;;;;;;;1.48;0.45;;;23.20;51.70;;;;;;5043065;28;20083;-62
2022/01/01 09:47:28;;;;;;;3.63;0.80;;;23.10;51.90;;;;;;5044042;28;20048;-62
2022/01/01 09:49:55;;;;;;;7.93;2.10;;;23.00;52.00;;;;;;5044702;28;20037;-58
2022/01/01 09:52:22;;;;;;;3.78;1.20;;;22.90;52.30;;;;;;5037885;28;20131;-57
2022/01/01 09:54:49;;;;;;;4.22;1.67;;;22.90;53.30;;;;;;5039588;28;20056;-55
2022/01/01 09:57:16;;;;;;;4.45;1.60;;;22.90;54.00;;;;;;5044649;28;20037;-52
2022/01/01 09:59:44;;;;;;;4.47;1.88;;;22.80;54.40;;;;;;5036437;28;20049;-53
2022/01/01 10:02:12;;;;;;;8.55;1.88;;;22.80;55.20;;;;;;5041349;28;20758;-56
2022/01/01 10:04:43;;;;;;;3.50;1.52;;;22.80;55.70;;;;;;5040474;28;20053;-60
2022/01/01 10:07:12;;;;;;;4.22;1.60;;;22.70;56.30;;;;;;5032070;28;20091;-57
2022/01/01 10:09:40;;;;;;;6.82;1.75;;;22.70;56.80;;;;;;5048806;28;20414;-62
2022/01/01 10:12:10;;;;;;;6.72;1.48;;;22.70;56.90;;;;;;5035543;28;20045;-62
2022/01/01 10:14:39;;;;;;;6.15;1.88;;;22.70;57.00;;;;;;5037702;28;20144;-61
2022/01/01 10:17:15;;;;;;;37.35;3.70;;;22.60;57.20;;;;;;5036539;28;20055;-57
2022/01/01 10:19:44;;;;;;;5.30;1.98;;;22.60;57.50;;;;;;5040326;28;20496;-61
2022/01/01 10:22:13;;;;;;;5.95;1.42;;;22.60;57.90;;;;;;5038568;28;20056;-60
2022/01/01 10:27:45;;;;;;;4.95;1.02;;;22.60;58.30;;;;;;5033277;28;20048;-62
2022/01/01 10:30:19;;;;;;;7.22;0.88;;;22.50;58.40;;;;;;5043576;28;20037;-61
2022/01/01 10:33:00;;;;;;;5.82;1.75;;;22.50;58.50;;;;;;5041630;28;20460;-62
2022/01/01 10:35:34;;;;;;;2.63;0.77;;;22.50;58.50;;;;;;5041966;28;20040;-62
2022/01/01 10:38:03;;;;;;;3.03;1.10;;;22.50;58.70;;;;;;5032085;28;20134;-61
2022/01/01 10:40:30;;;;;;;3.08;1.15;;;22.40;58.70;;;;;;5029144;28;20037;-62
2022/01/01 10:42:57;;;;;;;5.03;1.27;;;22.40;58.70;;;;;;5028487;28;20510;-61
2022/01/01 10:45:33;;;;;;;5.50;1.05;;;22.40;58.90;;;;;;5042728;28;20060;-60
2022/01/01 10:48:17;;;;;;;3.65;1.75;;;22.40;58.90;;;;;;5042203;28;20164;-62
2022/01/01 10:50:46;;;;;;;2.60;0.80;;;22.40;58.90;;;;;;5035116;28;20509;-60
2022/01/01 10:53:15;;;;;;;3.90;1.17;;;22.40;58.90;;;;;;5032334;28;20041;-61
2022/01/01 10:55:47;;;;;;;5.45;1.38;;;22.30;58.90;;;;;;5032698;28;20055;-61
2022/01/01 10:58:22;;;;;;;2.85;0.93;;;22.40;58.90;;;;;;5035250;28;20041;-61
2022/01/01 11:00:49;;;;;;;2.13;0.97;;;22.30;58.90;;;;;;5033452;28;20042;-61
2022/01/01 11:03:18;;;;;;;2.35;0.70;;;22.30;59.10;;;;;;5036126;28;20304;-62
2022/01/01 11:05:48;;;;;;;1.50;0.70;;;22.20;59.00;;;;;;5031403;28;20116;-60
2022/01/01 11:08:15;;;;;;;1.90;0.90;;;22.30;59.00;;;;;;5031130;28;20055;-60
2022/01/01 11:10:43;;;;;;;3.42;1.27;;;22.30;59.10;;;;;;5031254;28;20045;-61
2022/01/01 11:13:11;;;;;;;2.05;1.88;;;22.30;59.10;;;;;;5031965;28;20414;-60
2022/01/01 11:15:39;;;;;;;2.67;0.95;;;22.30;59.00;;;;;;5032876;28;20041;-60
2022/01/01 11:18:07;;;;;;;4.95;0.73;;;22.30;59.00;;;;;;5039035;28;20524;-61
2022/01/01 11:20:35;;;;;;;2.30;1.58;;;22.30;59.00;;;;;;5045896;28;20059;-61
2022/01/01 11:23:07;;;;;;;4.20;1.45;;;22.30;59.10;;;;;;5036759;28;20036;-63
2022/01/01 11:25:35;;;;;;;4.97;1.33;;;22.40;59.20;;;;;;5047153;28;20033;-62
2022/01/01 11:28:07;;;;;;;3.78;1.38;;;22.30;59.00;;;;;;5036668;28;20077;-62
2022/01/01 11:30:37;;;;;;;5.28;1.60;;;22.40;59.10;;;;;;5039280;28;20045;-62
2022/01/01 11:33:07;;;;;;;2.00;1.10;;;22.30;59.10;;;;;;5044337;28;20047;-61
2022/01/01 11:35:36;;;;;;;4.90;1.33;;;22.40;59.20;;;;;;5044166;28;20041;-61
2022/01/01 11:38:07;;;;;;;6.10;1.63;;;22.30;59.10;;;;;;5035712;28;20037;-62
2022/01/01 11:40:42;;;;;;;3.63;1.20;;;22.30;59.00;;;;;;5032182;28;20041;-62
2022/01/01 11:43:34;;;;;;;5.22;1.13;;;22.40;59.10;;;;;;5034116;28;20046;-61
2022/01/01 11:46:04;;;;;;;5.15;1.58;;;22.40;59.00;;;;;;5034062;28;20045;-60
2022/01/01 11:48:36;;;;;;;4.10;1.38;;;22.40;59.10;;;;;;5042532;28;20053;-61
2022/01/01 11:51:32;;;;;;;4.60;1.30;;;22.40;59.00;;;;;;5038288;28;20143;-60
2022/01/01 11:54:16;;;;;;;3.15;1.50;;;22.40;58.90;;;;;;5038921;28;20510;-60
2022/01/01 11:57:07;;;;;;;5.15;1.05;;;22.40;58.90;;;;;;5041910;28;20140;-59
2022/01/01 11:59:44;;;;;;;3.15;1.38;;;22.50;58.90;;;;;;5045375;28;20508;-62
2022/01/01 12:02:31;;;;;;;2.58;1.67;;;22.40;58.90;;;;;;5039998;28;20827;-61
2022/01/01 12:05:19;;;;;;;1.95;1.15;;;22.50;58.90;;;;;;5036235;28;20055;-60
2022/01/01 12:07:52;;;;;;;2.45;0.70;;;22.50;58.80;;;;;;5032709;28;20049;-62
2022/01/01 12:10:23;;;;;;;2.60;1.23;;;22.50;58.80;;;;;;5032677;28;20041;-61
2022/01/01 12:12:52;;;;;;;2.10;0.98;;;22.50;58.70;;;;;;5046406;28;20041;-61
2022/01/01 12:15:25;;;;;;;1.25;0.43;;;22.50;58.60;;;;;;5035136;28;20064;-61
2022/01/01 12:17:55;;;;;;;1.15;0.73;;;22.50;58.60;;;;;;5034793;28;20459;-61
2022/01/01 12:20:25;;;;;;;3.75;0.95;;;22.50;58.40;;;;;;5037875;28;20421;-62
2022/01/01 12:22:53;;;;;;;3.58;0.52;;;22.50;58.30;;;;;;5034727;28;20045;-61
2022/01/01 12:25:27;;;;;;;3.80;0.95;;;22.50;58.70;;;;;;5031013;28;20096;-60
2022/01/01 12:27:55;;;;;;;2.33;0.70;;;22.60;58.10;;;;;;5032502;28;20120;-61
2022/01/01 12:30:44;;;;;;;2.85;1.08;;;22.50;58.00;;;;;;5039910;28;20052;-62
2022/01/01 12:33:21;;;;;;;1.52;0.82;;;22.60;57.90;;;;;;5043361;28;20069;-60
2022/01/01 12:35:51;;;;;;;2.50;1.15;;;22.60;57.90;;;;;;5040885;28;20076;-61
2022/01/01 12:38:20;;;;;;;1.85;0.77;;;22.60;57.80;;;;;;5036615;28;20045;-61
2022/01/01 12:41:04;;;;;;;3.38;0.75;;;22.60;57.70;;;;;;5035044;28;20057;-60
2022/01/01 12:43:43;;;;;;;3.67;0.43;;;22.60;57.50;;;;;;5030432;28;20053;-59
2022/01/01 12:46:13;;;;;;;3.20;0.68;;;22.60;57.40;;;;;;5032450;28;20046;-61
2022/01/01 12:48:40;;;;;;;2.30;0.47;;;22.60;57.30;;;;;;5040508;28;20045;-61
2022/01/01 12:51:10;;;;;;;3.40;0.77;;;22.60;57.30;;;;;;5036172;28;20041;-60
2022/01/01 12:53:39;;;;;;;1.55;0.77;;;22.60;57.20;;;;;;5036417;28;20083;-61
2022/01/01 12:56:10;;;;;;;2.72;0.98;;;22.60;57.10;;;;;;5033862;28;20131;-62